Time;durP1;ratioP1;P1;durP2;ratioP2;P2;SDS_P1;SDS_P2;PMS_P1;PMS_P2;Temp;Humidity;BMP_temperature;BMP_pressure;BME280_temperature;BME280_humidity;BME280_pressure;Samples;Min_cycle;Max_cycle;Signal;HPM_P1;HPM_P2
2021/09/13 00:01:46;;;;;;;15.60;10.50;;;;;;;12.69;89.28;97306.81;5053415;28;20070;-82
2021/09/13 00:04:12;;;;;;;14.70;10.18;;;;;;;12.62;88.70;97292.13;5053162;28;20270;-82
2021/09/13 00:06:37;;;;;;;18.88;10.88;;;;;;;12.57;88.87;97300.56;5054437;28;20070;-83
2021/09/13 00:09:03;;;;;;;18.67;10.23;;;;;;;12.44;88.63;97286.31;5054345;28;20032;-83
2021/09/13 00:11:29;;;;;;;19.40;10.70;;;;;;;12.49;89.12;97305.59;5071118;28;20028;-82
2021/09/13 00:13:54;;;;;;;17.90;10.75;;;;;;;12.43;89.57;97309.59;5071388;28;20064;-82
2021/09/13 00:16:20;;;;;;;14.40;9.75;;;;;;;12.40;90.16;97322.38;5036507;28;20064;-82
2021/09/13 00:18:45;;;;;;;18.45;9.93;;;;;;;12.40;90.03;97309.81;5053422;28;20029;-83
2021/09/13 00:21:11;;;;;;;15.75;10.13;;;;;;;12.15;90.51;97269.66;5053173;28;20078;-82
2021/09/13 00:23:36;;;;;;;18.58;10.95;;;;;;;12.25;90.81;97288.63;5053639;28;20033;-82
2021/09/13 00:26:02;;;;;;;19.35;10.70;;;;;;;12.31;90.59;97291.72;5053283;28;20059;-83
2021/09/13 00:28:28;;;;;;;22.27;10.90;;;;;;;12.36;90.78;97303.00;5036661;28;20041;-82
2021/09/13 00:30:53;;;;;;;16.13;10.50;;;;;;;12.42;91.22;97312.41;5036606;28;20032;-83
2021/09/13 00:33:19;;;;;;;19.85;10.90;;;;;;;12.30;91.00;97303.44;5052986;28;20124;-82
2021/09/13 00:35:44;;;;;;;22.75;10.52;;;;;;;12.35;91.22;97317.34;5071222;28;20415;-83
2021/09/13 00:38:10;;;;;;;17.80;10.88;;;;;;;12.28;91.77;97321.44;5053477;28;20033;-83
2021/09/13 00:40:35;;;;;;;31.02;11.75;;;;;;;12.26;92.10;97312.66;5053061;28;20017;-83
2021/09/13 00:43:02;;;;;;;22.10;10.50;;;;;;;12.33;91.96;97307.72;5053160;28;20029;-83
2021/09/13 00:45:28;;;;;;;20.58;11.65;;;;;;;12.26;92.25;97306.44;5036808;28;20043;-83
2021/09/13 00:47:53;;;;;;;23.20;11.52;;;;;;;12.27;92.19;97319.75;5053121;28;20033;-83
2021/09/13 00:50:19;;;;;;;17.17;10.85;;;;;;;12.15;91.98;97299.16;5036013;28;20036;-82
2021/09/13 00:52:51;;;;;;;15.80;10.45;;;;;;;12.37;92.11;97331.50;5053197;28;20028;-82
2021/09/13 00:55:18;;;;;;;17.73;10.90;;;;;;;12.42;91.75;97329.38;5053002;28;20115;-82
2021/09/13 00:57:44;;;;;;;22.13;11.20;;;;;;;12.43;91.64;97333.75;5053316;28;20025;-82
2021/09/13 01:00:10;;;;;;;23.15;11.50;;;;;;;12.35;91.82;97327.22;5036589;28;20408;-82
2021/09/13 01:02:36;;;;;;;19.13;10.90;;;;;;;12.33;91.86;97318.44;5052785;28;20514;-83
2021/09/13 01:05:01;;;;;;;17.30;11.00;;;;;;;12.22;92.78;97305.81;5070931;28;20031;-83
2021/09/13 01:07:30;;;;;;;14.25;10.38;;;;;;;12.38;92.49;97337.72;5052982;28;20024;-83
2021/09/13 01:09:55;;;;;;;16.52;10.43;;;;;;;12.30;92.69;97327.56;5070770;28;20121;-82
2021/09/13 01:12:21;;;;;;;15.60;11.07;;;;;;;12.38;92.61;97332.38;5039911;28;20067;-82
2021/09/13 01:14:46;;;;;;;20.48;11.07;;;;;;;12.19;93.33;97302.47;5039857;28;20503;-83
2021/09/13 01:17:12;;;;;;;16.27;10.88;;;;;;;12.31;93.64;97331.09;5056467;28;20032;-83
2021/09/13 01:19:38;;;;;;;21.90;11.13;;;;;;;12.08;93.88;97313.13;5056423;28;20038;-83
2021/09/13 01:22:05;;;;;;;17.95;11.43;;;;;;;12.20;95.05;97325.66;5056271;28;20115;-83
2021/09/13 01:24:31;;;;;;;23.02;12.20;;;;;;;12.20;95.76;97342.59;5056410;28;20541;-82
2021/09/13 01:27:05;;;;;;;23.20;12.85;;;;;;;11.99;96.06;97320.00;5039499;28;20078;-82
2021/09/13 01:29:32;;;;;;;22.40;12.02;;;;;;;12.13;96.34;97332.41;5039240;28;20028;-82
2021/09/13 01:31:58;;;;;;;19.73;11.35;;;;;;;12.08;96.92;97353.34;5039619;28;20036;-83
2021/09/13 01:34:24;;;;;;;20.73;11.80;;;;;;;11.98;96.46;97328.16;5056213;28;20032;-82
2021/09/13 01:36:50;;;;;;;19.50;11.57;;;;;;;11.90;96.35;97315.31;5039712;28;20078;-82
2021/09/13 01:39:16;;;;;;;22.10;12.38;;;;;;;11.93;97.00;97323.13;5039349;28;20020;-83
2021/09/13 01:41:43;;;;;;;18.40;10.98;;;;;;;11.94;97.75;97351.63;5073693;28;20032;-82
2021/09/13 01:44:10;;;;;;;19.42;11.50;;;;;;;11.86;97.64;97352.19;5055830;28;20029;-82
2021/09/13 01:46:36;;;;;;;17.58;11.73;;;;;;;11.82;97.17;97333.72;5055810;28;20450;-83
2021/09/13 01:49:02;;;;;;;21.55;12.00;;;;;;;11.73;98.46;97332.56;5056201;28;20028;-82
2021/09/13 01:51:27;;;;;;;17.75;11.40;;;;;;;11.71;98.32;97320.25;5056027;28;20054;-82
2021/09/13 01:53:53;;;;;;;20.50;11.88;;;;;;;11.58;98.86;97308.63;5039125;28;20024;-82
2021/09/13 01:56:18;;;;;;;19.17;11.80;;;;;;;11.63;99.00;97330.63;5038941;28;20035;-82
2021/09/13 01:58:44;;;;;;;20.70;11.98;;;;;;;11.71;99.12;97355.94;5055444;28;20036;-82
2021/09/13 02:01:09;;;;;;;18.95;11.93;;;;;;;11.60;98.38;97339.69;5073808;28;20063;-81
2021/09/13 02:03:35;;;;;;;18.58;11.38;;;;;;;11.52;98.53;97336.69;5055557;28;20057;-81
2021/09/13 02:06:00;;;;;;;18.95;12.02;;;;;;;11.46;98.52;97345.16;5055803;28;20028;-82
2021/09/13 02:08:27;;;;;;;18.17;11.43;;;;;;;11.32;99.14;97330.03;5055476;28;20025;-81
2021/09/13 02:10:52;;;;;;;16.45;11.68;;;;;;;11.51;99.16;97371.63;5073391;28;20479;-82
2021/09/13 02:13:18;;;;;;;19.95;11.02;;;;;;;11.48;99.51;97371.81;5055644;28;20081;-82
2021/09/13 02:15:43;;;;;;;20.20;11.43;;;;;;;11.30;99.10;97331.09;5055986;28;20131;-82
2021/09/13 02:18:09;;;;;;;21.42;11.48;;;;;;;11.46;98.23;97336.25;5055271;28;20032;-82
2021/09/13 02:20:34;;;;;;;19.10;10.85;;;;;;;11.49;97.75;97338.72;5055228;28;20404;-81
2021/09/13 02:23:00;;;;;;;21.20;11.80;;;;;;;11.56;98.10;97358.78;5054344;28;20103;-82
2021/09/13 02:25:26;;;;;;;21.95;11.43;;;;;;;11.39;98.77;97354.56;5073176;28;20028;-81
2021/09/13 02:27:51;;;;;;;19.65;11.60;;;;;;;11.39;97.82;97344.72;5038571;28;20501;-82
2021/09/13 02:30:17;;;;;;;22.92;12.27;;;;;;;11.36;97.35;97338.72;5072958;28;20052;-81
2021/09/13 02:32:42;;;;;;;17.95;11.15;;;;;;;11.45;97.94;97372.91;5038462;28;20119;-82
2021/09/13 02:35:08;;;;;;;20.75;12.15;;;;;;;11.28;98.94;97359.81;5038504;28;20075;-80
2021/09/13 02:37:35;;;;;;;22.73;11.35;;;;;;;11.24;99.75;97360.97;5054949;28;20043;-81
2021/09/13 02:40:01;;;;;;;18.90;11.25;;;;;;;11.22;100.00;97342.34;5038432;28;20013;-81
2021/09/13 02:42:27;;;;;;;21.85;12.25;;;;;;;11.35;100.00;97363.81;5038430;28;20438;-81
2021/09/13 02:44:53;;;;;;;19.42;12.75;;;;;;;11.41;100.00;97374.91;5054660;28;20103;-81
2021/09/13 02:47:18;;;;;;;21.75;12.55;;;;;;;11.22;100.00;97342.34;5038013;28;20111;-81
2021/09/13 02:49:44;;;;;;;20.52;12.80;;;;;;;11.43;100.00;97374.84;5038035;28;20407;-83
2021/09/13 02:52:09;;;;;;;17.85;12.00;;;;;;;11.12;100.00;97354.63;5054920;28;20036;-83
2021/09/13 02:54:35;;;;;;;37.38;12.95;;;;;;;11.30;100.00;97379.28;5038003;28;20024;-81
2021/09/13 02:57:01;;;;;;;22.27;13.25;;;;;;;11.18;100.00;97364.91;5073327;28;20498;-79
2021/09/13 02:59:26;;;;;;;19.88;12.88;;;;;;;11.00;100.00;97344.75;5055451;28;20441;-78
2021/09/13 03:01:52;;;;;;;24.10;12.70;;;;;;;11.07;100.00;97372.81;5074217;28;20055;-79
2021/09/13 03:04:17;;;;;;;21.25;11.90;;;;;;;11.23;100.00;97389.56;5077970;28;20032;-79
2021/09/13 03:06:43;;;;;;;21.83;12.45;;;;;;;11.21;100.00;97379.91;5059229;28;20032;-79
2021/09/13 03:09:08;;;;;;;22.77;11.63;;;;;;;11.21;100.00;97380.78;5055413;28;20094;-79
2021/09/13 03:11:34;;;;;;;25.55;12.10;;;;;;;10.98;100.00;97362.75;5073902;28;20404;-79
2021/09/13 03:13:59;;;;;;;21.02;12.60;;;;;;;10.97;100.00;97376.19;5055489;28;20055;-78
2021/09/13 03:16:25;;;;;;;21.17;11.82;;;;;;;11.09;100.00;97391.44;5073058;28;20440;-79
2021/09/13 03:18:51;;;;;;;27.50;13.10;;;;;;;11.03;100.00;97382.00;5072713;28;20035;-79
2021/09/13 03:21:17;;;;;;;27.52;12.52;;;;;;;10.96;100.00;97377.16;5073544;28;20028;-79
2021/09/13 03:23:43;;;;;;;24.02;12.65;;;;;;;11.02;100.00;97374.94;5055955;28;20020;-79
2021/09/13 03:26:08;;;;;;;21.77;13.13;;;;;;;11.06;100.00;97375.59;5055405;28;20056;-79
2021/09/13 03:28:34;;;;;;;23.08;13.60;;;;;;;11.11;100.00;97386.84;5073889;28;20032;-79
2021/09/13 03:31:03;;;;;;;25.98;12.93;;;;;;;11.04;100.00;97383.75;5074653;28;20040;-79
2021/09/13 03:33:29;;;;;;;26.33;14.43;;;;;;;10.98;100.00;97399.34;5055987;28;20086;-79
2021/09/13 03:35:55;;;;;;;28.48;13.73;;;;;;;10.79;100.00;97373.78;5054929;28;20055;-78
2021/09/13 03:38:21;;;;;;;27.67;13.80;;;;;;;10.88;100.00;97396.41;5039875;28;20496;-78
2021/09/13 03:40:47;;;;;;;24.98;13.75;;;;;;;10.74;100.00;97372.34;5038717;28;20024;-78
2021/09/13 03:43:12;;;;;;;22.35;12.43;;;;;;;10.86;100.00;97395.63;5072644;28;20024;-76
2021/09/13 03:45:38;;;;;;;25.67;13.43;;;;;;;10.75;100.00;97374.94;5080959;28;20085;-75
2021/09/13 03:48:04;;;;;;;22.27;13.35;;;;;;;10.95;100.00;97405.72;5064167;28;20028;-78
2021/09/13 03:50:29;;;;;;;26.95;14.43;;;;;;;10.95;100.00;97407.56;5065145;28;20511;-78
2021/09/13 03:52:55;;;;;;;25.45;14.13;;;;;;;10.85;100.00;97393.94;5081316;28;20020;-77
2021/09/13 03:55:21;;;;;;;26.17;13.30;;;;;;;10.76;100.00;97386.50;5083223;28;20055;-78
2021/09/13 03:57:46;;;;;;;25.02;14.80;;;;;;;10.83;100.00;97406.53;5062678;28;20055;-79
2021/09/13 04:00:12;;;;;;;29.15;13.80;;;;;;;10.81;100.00;97409.31;5071991;28;20024;-79
2021/09/13 04:02:41;;;;;;;19.48;12.27;;;;;;;10.83;100.00;97401.19;5037663;28;20036;-79
2021/09/13 04:05:08;;;;;;;24.63;13.65;;;;;;;10.66;100.00;97404.97;5053476;28;20483;-79
2021/09/13 04:08:10;;;;;;;22.98;13.43;;;;;;;10.62;100.00;97402.56;5056394;28;20059;-78
2021/09/13 04:10:46;;;;;;;21.35;13.10;;;;;;;10.68;100.00;97418.22;5070856;28;20527;-77
2021/09/13 04:13:11;;;;;;;25.10;13.55;;;;;;;10.69;100.00;97406.59;5060890;28;20458;-77
2021/09/13 04:15:37;;;;;;;24.13;13.73;;;;;;;10.82;100.00;97412.88;5080084;28;20100;-77
2021/09/13 04:18:03;;;;;;;31.67;13.25;;;;;;;10.95;100.00;97427.13;5060064;28;20032;-77
2021/09/13 04:20:28;;;;;;;32.75;13.00;;;;;;;10.91;100.00;97428.31;5045032;28;20085;-77
2021/09/13 04:22:54;;;;;;;20.42;12.20;;;;;;;10.95;100.00;97427.13;5059600;28;20025;-76
2021/09/13 04:25:19;;;;;;;24.38;12.43;;;;;;;10.88;100.00;97412.47;5059093;28;20027;-77
2021/09/13 04:27:45;;;;;;;24.88;13.25;;;;;;;11.01;100.00;97420.53;5073584;28;20049;-78
2021/09/13 04:30:10;;;;;;;30.55;12.70;;;;;;;11.07;100.00;97426.34;5072480;28;20075;-78
2021/09/13 04:32:36;;;;;;;24.90;12.45;;;;;;;11.13;98.64;97417.06;5054734;28;20127;-78
2021/09/13 04:35:02;;;;;;;26.48;12.95;;;;;;;11.28;98.16;97424.94;5072409;28;20036;-77
2021/09/13 04:37:27;;;;;;;26.63;12.98;;;;;;;11.26;97.92;97418.81;5053102;28;20028;-77
2021/09/13 04:39:53;;;;;;;33.10;13.35;;;;;;;11.25;98.02;97408.22;5052764;28;20039;-77
2021/09/13 04:42:18;;;;;;;29.30;13.45;;;;;;;11.46;97.96;97432.69;5053149;28;20162;-77
2021/09/13 04:44:44;;;;;;;29.45;13.90;;;;;;;11.56;97.62;97431.97;5053199;28;20097;-77
2021/09/13 04:47:09;;;;;;;26.38;12.82;;;;;;;11.50;97.55;97421.69;5055992;28;20032;-77
2021/09/13 04:49:35;;;;;;;33.35;13.63;;;;;;;11.57;98.12;97433.66;5057085;28;20036;-77
2021/09/13 04:52:01;;;;;;;27.25;13.18;;;;;;;11.77;97.08;97427.00;5057305;28;20078;-77
2021/09/13 04:54:26;;;;;;;26.98;13.68;;;;;;;11.84;96.19;97421.09;5075674;28;20055;-77
2021/09/13 04:56:52;;;;;;;28.95;13.52;;;;;;;11.95;95.63;97423.03;5057183;28;20151;-80
2021/09/13 04:59:17;;;;;;;26.85;14.07;;;;;;;12.16;95.00;97431.41;5081719;28;20052;-78
2021/09/13 05:01:43;;;;;;;31.63;15.90;;;;;;;12.31;94.01;97439.22;5074330;28;20032;-78
2021/09/13 05:04:11;;;;;;;44.50;15.93;;;;;;;12.17;93.18;97417.03;5039742;28;20059;-78
2021/09/13 05:06:37;;;;;;;32.22;16.00;;;;;;;12.29;93.61;97443.84;5074375;28;20028;-77
2021/09/13 05:09:04;;;;;;;36.30;15.98;;;;;;;12.37;93.12;97441.47;5074158;28;20032;-77
2021/09/13 05:11:31;;;;;;;29.20;14.82;;;;;;;12.36;92.42;97425.50;5056752;28;20039;-77
2021/09/13 05:13:56;;;;;;;36.00;16.27;;;;;;;12.52;91.93;97448.44;5056853;28;20028;-78
2021/09/13 05:16:22;;;;;;;41.35;15.35;;;;;;;12.58;91.16;97439.09;5044484;28;20470;-78
2021/09/13 05:18:48;;;;;;;37.45;15.68;;;;;;;12.52;91.08;97448.44;5056639;28;20091;-78
2021/09/13 05:21:14;;;;;;;40.42;16.50;;;;;;;12.65;90.49;97452.94;5056405;28;20530;-77
2021/09/13 05:23:40;;;;;;;37.58;16.00;;;;;;;12.73;89.90;97429.97;5056626;28;20033;-78
2021/09/13 05:26:05;;;;;;;28.40;17.20;;;;;;;13.07;87.80;97449.84;5056625;28;20089;-78
2021/09/13 05:28:31;;;;;;;41.17;16.17;;;;;;;13.38;86.97;97449.28;5056294;28;20038;-78
2021/09/13 05:30:57;;;;;;;34.78;15.77;;;;;;;14.11;82.66;97436.47;5060139;28;20024;-79
2021/09/13 05:33:23;;;;;;;38.30;16.25;;;;;;;16.06;72.47;97456.38;5073889;28;20063;-77
2021/09/13 05:35:48;;;;;;;36.00;16.77;;;;;;;17.62;64.75;97447.88;5056308;28;20033;-77
2021/09/13 05:38:14;;;;;;;36.85;15.90;;;;;;;18.87;58.71;97454.00;5074152;28;20480;-76
2021/09/13 05:40:40;;;;;;;34.55;15.82;;;;;;;19.72;55.51;97448.28;5039340;28;20031;-77
2021/09/13 05:43:07;;;;;;;29.85;14.77;;;;;;;20.26;53.64;97455.41;5055950;28;20020;-77
2021/09/13 05:45:34;;;;;;;30.10;14.50;;;;;;;21.30;50.23;97454.38;5056982;28;20020;-77
2021/09/13 05:48:00;;;;;;;35.15;14.63;;;;;;;21.60;48.37;97440.19;5055994;28;20020;-77
2021/09/13 05:50:26;;;;;;;34.35;13.88;;;;;;;21.95;47.93;97450.88;5057811;28;20309;-78
2021/09/13 05:52:51;;;;;;;36.72;14.88;;;;;;;22.42;46.75;97452.94;5055947;28;20491;-78
2021/09/13 05:55:17;;;;;;;37.38;14.65;;;;;;;22.77;45.40;97440.81;5073516;28;20021;-78
2021/09/13 05:57:42;;;;;;;44.13;14.10;;;;;;;23.26;44.61;97441.56;5076075;28;20024;-78
2021/09/13 06:00:08;;;;;;;35.95;15.50;;;;;;;23.76;43.61;97444.72;5059523;28;20055;-78
2021/09/13 06:02:34;;;;;;;29.05;14.15;;;;;;;24.61;42.00;97440.84;5055391;28;20032;-79
2021/09/13 06:04:59;;;;;;;29.42;14.45;;;;;;;24.81;40.79;97443.97;5058356;28;20082;-78
2021/09/13 06:07:25;;;;;;;45.28;15.35;;;;;;;25.17;40.48;97435.84;5073200;28;20024;-76
2021/09/13 06:09:51;;;;;;;38.13;14.40;;;;;;;25.48;39.50;97446.59;5058131;28;20048;-77
2021/09/13 06:12:17;;;;;;;41.90;15.80;;;;;;;25.86;39.05;97442.72;5057099;28;20096;-78
2021/09/13 06:14:44;;;;;;;37.28;13.90;;;;;;;26.46;37.76;97441.44;5055349;28;20035;-78
2021/09/13 06:17:13;;;;;;;30.63;13.82;;;;;;;26.39;37.62;97433.19;5058525;28;20108;-78
2021/09/13 06:19:39;;;;;;;32.65;14.85;;;;;;;26.35;38.02;97438.22;5064583;28;20391;-79
2021/09/13 06:22:04;;;;;;;29.90;14.98;;;;;;;26.55;37.38;97437.56;5044779;28;20021;-79
2021/09/13 06:24:31;;;;;;;28.90;13.85;;;;;;;26.76;36.99;97440.25;5056339;28;20020;-79
2021/09/13 06:26:57;;;;;;;32.38;14.77;;;;;;;26.74;36.85;97439.59;5055149;28;20079;-78
2021/09/13 06:29:22;;;;;;;38.92;15.20;;;;;;;27.35;36.02;97441.53;5054822;28;20036;-79
2021/09/13 06:31:48;;;;;;;39.53;14.18;;;;;;;26.99;36.39;97427.16;5072941;28;20039;-79
2021/09/13 06:34:18;;;;;;;31.83;14.70;;;;;;;26.53;36.95;97453.34;5082093;28;20032;-79
2021/09/13 06:36:45;;;;;;;32.60;15.77;;;;;;;26.59;37.25;97450.66;5066684;28;20036;-78
2021/09/13 06:39:11;;;;;;;21.35;14.00;;;;;;;27.37;35.73;97444.94;5060313;28;20028;-79
2021/09/13 06:41:37;;;;;;;25.58;13.50;;;;;;;27.93;35.69;97436.56;5045575;28;20028;-79
2021/09/13 06:44:03;;;;;;;33.65;14.02;;;;;;;28.54;33.80;97440.09;5054631;28;20498;-79
2021/09/13 06:46:42;;;;;;;26.25;13.90;;;;;;;28.67;33.42;97417.25;5055677;28;20484;-78
2021/09/13 06:49:08;;;;;;;29.80;14.43;;;;;;;28.61;33.51;97435.41;5039034;28;20025;-78
2021/09/13 06:51:34;;;;;;;30.17;13.55;;;;;;;28.93;32.62;97431.88;5054416;28;20103;-79
2021/09/13 06:53:59;;;;;;;28.85;15.00;;;;;;;28.36;33.28;97439.88;5055165;28;20135;-77
2021/09/13 06:56:25;;;;;;;22.92;12.43;;;;;;;28.64;32.97;97426.72;5073044;28;20020;-78
2021/09/13 06:58:52;;;;;;;26.38;13.23;;;;;;;29.52;31.95;97426.28;5053206;28;20139;-78
2021/09/13 07:01:21;;;;;;;29.33;12.85;;;;;;;30.07;30.82;97419.25;5054306;28;20388;-78
2021/09/13 07:03:47;;;;;;;22.63;13.32;;;;;;;30.04;30.56;97435.41;5072186;28;20025;-78
2021/09/13 07:06:13;;;;;;;26.67;14.52;;;;;;;28.33;33.29;97440.28;5071890;28;20028;-79
2021/09/13 07:08:38;;;;;;;28.90;14.88;;;;;;;28.86;32.45;97421.91;5053462;28;20109;-78
2021/09/13 07:11:05;;;;;;;23.33;14.20;;;;;;;29.88;31.55;97419.34;5054342;28;20020;-78
2021/09/13 07:13:31;;;;;;;28.08;14.43;;;;;;;29.03;32.22;97436.94;5053648;28;20152;-78
2021/09/13 07:15:56;;;;;;;22.50;13.32;;;;;;;29.15;33.02;97428.88;5073391;28;20107;-78
2021/09/13 07:18:22;;;;;;;27.45;14.07;;;;;;;29.81;31.17;97435.88;5073249;28;20434;-77
2021/09/13 07:20:48;;;;;;;26.75;13.70;;;;;;;29.51;31.35;97423.72;5035939;28;20034;-78
2021/09/13 07:23:13;;;;;;;25.52;11.60;;;;;;;29.28;31.52;97435.25;5052524;28;20024;-78
2021/09/13 07:25:39;;;;;;;19.42;12.55;;;;;;;29.83;30.93;97427.44;5070926;28;20557;-78
2021/09/13 07:28:04;;;;;;;23.75;12.60;;;;;;;30.26;29.90;97411.06;5071079;28;20553;-79
2021/09/13 07:30:30;;;;;;;21.77;12.60;;;;;;;31.07;29.04;97417.50;5053370;28;20036;-79
2021/09/13 07:32:56;;;;;;;31.63;13.52;;;;;;;31.33;28.90;97411.69;5053788;28;20471;-78
2021/09/13 07:35:21;;;;;;;23.92;12.68;;;;;;;32.19;27.83;97411.50;5071781;28;20028;-79
2021/09/13 07:37:47;;;;;;;30.33;12.35;;;;;;;32.54;27.10;97409.72;5054520;28;20107;-78
2021/09/13 07:40:13;;;;;;;23.38;12.82;;;;;;;31.54;28.24;97419.56;5071771;28;20024;-79
2021/09/13 07:42:40;;;;;;;21.50;12.45;;;;;;;31.55;28.40;97424.03;5053276;28;20505;-77
2021/09/13 07:45:06;;;;;;;19.75;11.88;;;;;;;30.86;29.20;97420.63;5053716;28;20052;-79
2021/09/13 07:47:32;;;;;;;23.30;11.95;;;;;;;30.76;29.10;97400.97;5053408;28;20028;-78
2021/09/13 07:49:58;;;;;;;16.88;10.77;;;;;;;31.00;28.98;97422.25;5053638;28;20024;-78
2021/09/13 07:52:24;;;;;;;23.20;11.93;;;;;;;32.01;27.58;97411.53;5036863;28;20028;-78
2021/09/13 07:54:50;;;;;;;16.80;11.15;;;;;;;31.30;28.03;97414.91;5053376;28;20021;-78
2021/09/13 07:57:15;;;;;;;26.85;11.40;;;;;;;31.54;27.81;97414.03;5036728;28;20069;-79
2021/09/13 07:59:41;;;;;;;18.88;11.88;;;;;;;31.80;27.49;97423.09;5053281;28;20115;-79
2021/09/13 08:02:06;;;;;;;19.63;11.27;;;;;;;32.32;26.62;97419.63;5036858;28;20059;-77
2021/09/13 08:04:32;;;;;;;23.73;11.38;;;;;;;32.96;26.11;97406.91;5053128;28;20028;-78
2021/09/13 08:06:57;;;;;;;20.55;11.27;;;;;;;33.65;25.63;97420.81;5053426;28;20052;-78
2021/09/13 08:09:23;;;;;;;28.05;11.77;;;;;;;34.34;24.49;97413.34;5053350;28;20036;-79
2021/09/13 08:11:49;;;;;;;31.02;12.07;;;;;;;35.05;24.39;97418.28;5053147;28;20063;-79
2021/09/13 08:14:14;;;;;;;18.52;10.82;;;;;;;34.64;24.51;97422.28;5036560;28;20029;-78
2021/09/13 08:16:40;;;;;;;26.15;10.82;;;;;;;34.74;24.12;97414.13;5071125;28;20083;-79
2021/09/13 08:19:05;;;;;;;21.08;11.20;;;;;;;35.02;23.92;97421.56;5053349;28;20085;-77
2021/09/13 08:21:31;;;;;;;22.77;11.20;;;;;;;35.28;23.63;97423.69;5038499;28;20017;-79
2021/09/13 08:23:57;;;;;;;22.77;11.05;;;;;;;36.45;22.37;97414.13;5057514;28;20021;-77
2021/09/13 08:26:22;;;;;;;20.73;11.20;;;;;;;36.60;22.20;97406.78;5057081;28;20503;-78
2021/09/13 08:28:48;;;;;;;26.90;11.27;;;;;;;36.66;22.09;97400.16;5056804;28;20478;-79
2021/09/13 08:31:14;;;;;;;18.92;11.05;;;;;;;37.11;21.84;97390.50;5069016;28;20461;-79
2021/09/13 08:33:39;;;;;;;39.10;12.77;;;;;;;36.99;22.09;97398.22;5056961;28;20154;-79
2021/09/13 08:36:05;;;;;;;21.65;10.38;;;;;;;37.14;21.17;97387.19;5069022;28;20415;-78
2021/09/13 08:38:31;;;;;;;21.42;10.93;;;;;;;37.17;21.23;97393.06;5057048;28;20020;-79
2021/09/13 08:40:57;;;;;;;21.58;11.20;;;;;;;37.24;21.00;97399.28;5043198;28;20384;-79
2021/09/13 08:43:23;;;;;;;17.92;10.38;;;;;;;37.63;20.67;97391.44;5057058;28;20028;-79
2021/09/13 08:48:39;;;;;;;31.10;13.07;;;;;;;38.48;20.42;97379.81;5074667;28;20025;-79
2021/09/13 08:53:33;;;;;;;23.92;10.43;;;;;;;36.84;20.94;97366.28;5074967;28;20028;-79
2021/09/13 08:56:02;;;;;;;20.75;10.18;;;;;;;37.73;19.92;97377.53;5074727;28;20044;-79
2021/09/13 08:58:27;;;;;;;22.17;11.20;;;;;;;38.49;19.78;97375.03;5057275;28;20032;-78
2021/09/13 09:00:53;;;;;;;15.05;9.82;;;;;;;38.19;20.05;97372.13;5056552;28;20488;-80
2021/09/13 09:03:19;;;;;;;17.27;9.70;;;;;;;37.63;20.09;97359.88;5058619;28;20032;-79
2021/09/13 09:05:50;;;;;;;13.82;10.20;;;;;;;38.41;19.79;97370.00;5074816;28;20101;-77
2021/09/13 09:08:29;;;;;;;19.43;10.20;;;;;;;38.57;19.30;97354.94;5056684;28;20048;-77
2021/09/13 09:11:01;;;;;;;26.02;11.25;;;;;;;38.46;19.20;97372.78;5056515;28;20424;-78
2021/09/13 09:13:36;;;;;;;18.17;10.75;;;;;;;39.31;18.93;97357.19;5062030;28;20024;-79
2021/09/13 09:16:04;;;;;;;25.38;11.52;;;;;;;39.56;18.49;97341.13;5057416;28;20063;-79
2021/09/13 09:18:44;;;;;;;21.98;11.57;;;;;;;39.39;18.26;97362.19;5058368;28;20107;-79
2021/09/13 09:21:30;;;;;;;22.85;12.95;;;;;;;39.63;17.57;97351.19;5078440;28;20381;-78
2021/09/13 09:23:59;;;;;;;22.88;11.77;;;;;;;39.45;18.74;97355.47;5068537;28;20414;-79
2021/09/13 09:26:26;;;;;;;24.17;11.52;;;;;;;39.63;17.36;97352.03;5073753;28;20051;-77
2021/09/13 09:28:52;;;;;;;14.90;11.68;;;;;;;37.23;19.23;97346.50;5055809;28;20035;-78
2021/09/13 09:31:40;;;;;;;18.85;11.02;;;;;;;38.36;18.94;97347.63;5054272;28;20024;-79
2021/09/13 09:34:18;;;;;;;18.20;10.77;;;;;;;39.88;17.74;97349.19;5076247;28;20187;-78
2021/09/13 09:37:06;;;;;;;19.30;9.48;;;;;;;39.70;17.23;97347.00;5063117;28;20035;-79
2021/09/13 09:39:56;;;;;;;12.30;8.98;;;;;;;40.65;16.99;97342.03;5087265;28;20062;-80
2021/09/13 09:42:33;;;;;;;16.52;9.00;;;;;;;39.80;17.44;97343.34;5050373;28;20040;-80
2021/09/13 09:45:00;;;;;;;15.82;9.38;;;;;;;40.47;17.09;97343.53;5061845;28;20513;-79
2021/09/13 09:47:26;;;;;;;22.45;9.50;;;;;;;41.18;16.56;97331.78;5055929;28;20048;-80
2021/09/13 09:49:57;;;;;;;15.70;9.25;;;;;;;39.92;18.14;97338.22;5055768;28;20052;-79
2021/09/13 09:52:30;;;;;;;13.00;8.88;;;;;;;39.94;17.34;97335.97;5082640;28;20546;-78
2021/09/13 09:55:17;;;;;;;33.20;9.63;;;;;;;40.29;17.24;97330.22;5061839;28;20511;-77
2021/09/13 09:57:44;;;;;;;16.98;9.40;;;;;;;40.22;17.58;97334.44;5032317;28;20071;-79
2021/09/13 10:00:26;;;;;;;17.05;9.10;;;;;;;37.33;19.38;97325.06;5074865;28;20020;-77
2021/09/13 10:02:52;;;;;;;;;;;;;;;36.51;20.53;97330.28;5081068;28;20108;-78
2021/09/13 10:05:22;;;;;;;15.82;10.25;;;;;;;36.98;20.53;97330.38;5055108;28;20411;-78
2021/09/13 10:07:49;;;;;;;12.60;8.80;;;;;;;37.31;19.70;97332.91;5058738;28;20446;-77
2021/09/13 10:10:15;;;;;;;18.55;9.75;;;;;;;37.21;19.70;97324.44;5046120;28;20026;-79
2021/09/13 10:12:41;;;;;;;15.35;9.10;;;;;;;36.55;19.63;97297.16;5047075;28;20480;-80
2021/09/13 10:15:07;;;;;;;13.90;8.57;;;;;;;37.30;19.51;97317.25;5075692;28;20516;-78
2021/09/13 10:17:33;;;;;;;15.35;8.80;;;;;;;39.00;18.33;97320.81;5063018;28;20032;-80
2021/09/13 10:20:01;;;;;;;12.38;8.80;;;;;;;39.69;17.80;97308.91;5059587;28;20100;-78
2021/09/13 10:22:29;;;;;;;13.50;8.15;;;;;;;40.13;16.99;97309.00;5060706;28;20518;-79
2021/09/13 10:24:55;;;;;;;14.10;7.97;;;;;;;40.67;16.42;97306.09;5058767;28;20506;-78
2021/09/13 10:27:20;;;;;;;11.95;8.07;;;;;;;40.21;16.34;97296.34;5065539;28;20068;-78
2021/09/13 10:29:47;;;;;;;12.25;8.20;;;;;;;41.25;16.37;97298.56;5073193;28;20032;-79
2021/09/13 10:32:14;;;;;;;16.30;8.75;;;;;;;41.59;16.34;97302.09;5054967;28;20505;-78
2021/09/13 10:34:40;;;;;;;13.65;7.85;;;;;;;41.38;15.80;97295.06;5039354;28;20020;-79
2021/09/13 10:37:16;;;;;;;15.75;8.10;;;;;;;41.70;16.03;97302.00;5055546;28;20415;-78
2021/09/13 10:40:00;;;;;;;14.35;8.20;;;;;;;41.88;15.75;97299.25;5073144;28;20024;-79
2021/09/13 10:42:29;;;;;;;11.20;7.25;;;;;;;41.68;15.80;97299.50;5054814;28;20115;-78
2021/09/13 10:45:14;;;;;;;10.23;8.48;;;;;;;42.15;15.58;97295.75;5072044;28;20040;-79
2021/09/13 10:48:02;;;;;;;11.18;7.80;;;;;;;42.50;15.11;97278.38;5055126;28;20598;-79
2021/09/13 10:50:45;;;;;;;10.27;7.93;;;;;;;41.42;15.51;97278.44;5054577;28;20032;-79
2021/09/13 10:53:32;;;;;;;11.77;7.68;;;;;;;40.69;15.97;97281.41;5054388;28;20043;-78
2021/09/13 10:56:22;;;;;;;12.93;7.50;;;;;;;40.43;16.12;97277.09;5054190;28;20028;-79
2021/09/13 10:58:50;;;;;;;14.32;7.53;;;;;;;41.83;15.71;97276.84;5054225;28;20032;-79
2021/09/13 11:01:27;;;;;;;18.95;8.43;;;;;;;41.32;16.45;97270.09;5054518;28;20035;-79
2021/09/13 11:04:07;;;;;;;15.88;7.18;;;;;;;42.82;15.18;97283.22;5072153;28;20050;-80
2021/09/13 11:06:38;;;;;;;11.23;7.07;;;;;;;43.03;15.05;97278.09;5054315;28;20034;-79
2021/09/13 11:09:06;;;;;;;10.15;7.60;;;;;;;42.09;15.93;97272.50;5054071;28;20535;-78
2021/09/13 11:11:51;;;;;;;10.45;7.10;;;;;;;40.99;16.68;97269.91;5054246;28;20046;-79
2021/09/13 11:14:24;;;;;;;14.88;7.60;;;;;;;39.88;16.80;97269.84;5072010;28;20028;-79
2021/09/13 11:17:02;;;;;;;14.75;7.15;;;;;;;39.42;17.79;97253.25;5053892;28;20506;-78
2021/09/13 11:19:28;;;;;;;18.95;7.20;;;;;;;39.01;18.05;97269.28;5042393;28;20017;-79
2021/09/13 11:21:59;;;;;;;13.13;6.93;;;;;;;39.22;17.50;97272.06;5053888;28;20518;-79
2021/09/13 11:24:28;;;;;;;12.98;6.97;;;;;;;39.15;17.55;97263.09;5053859;28;20060;-79